sensor_id;sensor_type;location;lat;lon;timestamp;P1;durP1;ratioP1;P2;durP2;ratioP2
23730;SDS011;12046;44.702;10.622;2023-07-29T00:02:00;1.88;;;1.70;;
23730;SDS011;12046;44.702;10.622;2023-07-29T00:04:25;2.05;;;1.88;;
23730;SDS011;12046;44.702;10.622;2023-07-29T00:06:51;2.40;;;1.83;;
23730;SDS011;12046;44.702;10.622;2023-07-29T00:09:17;2.55;;;1.80;;
23730;SDS011;12046;44.702;10.622;2023-07-29T00:11:42;1.85;;;1.75;;
23730;SDS011;12046;44.702;10.622;2023-07-29T00:14:08;2.00;;;1.90;;
23730;SDS011;12046;44.702;10.622;2023-07-29T00:16:34;1.88;;;1.77;;
23730;SDS011;12046;44.702;10.622;2023-07-29T00:18:59;2.13;;;1.92;;
23730;SDS011;12046;44.702;10.622;2023-07-29T00:21:25;1.60;;;1.50;;
23730;SDS011;12046;44.702;10.622;2023-07-29T00:23:51;1.65;;;1.55;;
23730;SDS011;12046;44.702;10.622;2023-07-29T00:26:17;2.35;;;1.70;;
23730;SDS011;12046;44.702;10.622;2023-07-29T00:28:43;1.80;;;1.70;;
23730;SDS011;12046;44.702;10.622;2023-07-29T00:31:09;1.75;;;1.55;;
23730;SDS011;12046;44.702;10.622;2023-07-29T00:33:35;1.75;;;1.42;;
23730;SDS011;12046;44.702;10.622;2023-07-29T00:36:01;2.00;;;1.48;;
23730;SDS011;12046;44.702;10.622;2023-07-29T00:38:28;1.60;;;1.50;;
23730;SDS011;12046;44.702;10.622;2023-07-29T00:40:53;1.70;;;1.60;;
23730;SDS011;12046;44.702;10.622;2023-07-29T00:43:21;1.45;;;1.35;;
23730;SDS011;12046;44.702;10.622;2023-07-29T00:45:46;1.55;;;1.40;;
23730;SDS011;12046;44.702;10.622;2023-07-29T00:48:13;1.38;;;1.27;;
23730;SDS011;12046;44.702;10.622;2023-07-29T00:50:39;1.50;;;1.40;;
23730;SDS011;12046;44.702;10.622;2023-07-29T00:53:05;1.80;;;1.50;;
23730;SDS011;12046;44.702;10.622;2023-07-29T00:55:31;1.80;;;1.70;;
23730;SDS011;12046;44.702;10.622;2023-07-29T00:57:57;2.50;;;1.65;;
23730;SDS011;12046;44.702;10.622;2023-07-29T01:00:23;1.83;;;1.50;;
23730;SDS011;12046;44.702;10.622;2023-07-29T01:02:49;1.73;;;1.60;;
23730;SDS011;12046;44.702;10.622;2023-07-29T01:05:16;2.00;;;1.80;;
23730;SDS011;12046;44.702;10.622;2023-07-29T01:18:55;1.85;;;1.48;;
23730;SDS011;12046;44.702;10.622;2023-07-29T01:21:23;1.60;;;1.50;;
23730;SDS011;12046;44.702;10.622;2023-07-29T01:23:52;1.70;;;1.60;;
23730;SDS011;12046;44.702;10.622;2023-07-29T01:26:18;2.22;;;1.60;;
23730;SDS011;12046;44.702;10.622;2023-07-29T01:28:44;1.75;;;1.60;;
23730;SDS011;12046;44.702;10.622;2023-07-29T01:31:10;1.50;;;1.40;;
23730;SDS011;12046;44.702;10.622;2023-07-29T01:33:45;3.03;;;1.58;;
23730;SDS011;12046;44.702;10.622;2023-07-29T01:36:19;1.90;;;1.70;;
23730;SDS011;12046;44.702;10.622;2023-07-29T01:38:48;2.17;;;1.98;;
23730;SDS011;12046;44.702;10.622;2023-07-29T01:41:16;2.22;;;2.13;;
23730;SDS011;12046;44.702;10.622;2023-07-29T01:43:42;2.50;;;2.30;;
23730;SDS011;12046;44.702;10.622;2023-07-29T01:46:12;2.40;;;2.20;;
23730;SDS011;12046;44.702;10.622;2023-07-29T01:48:39;2.63;;;2.42;;
23730;SDS011;12046;44.702;10.622;2023-07-29T01:51:06;3.45;;;2.67;;
23730;SDS011;12046;44.702;10.622;2023-07-29T01:53:32;3.13;;;2.83;;
23730;SDS011;12046;44.702;10.622;2023-07-29T01:55:58;2.72;;;2.53;;
23730;SDS011;12046;44.702;10.622;2023-07-29T01:58:24;3.28;;;2.63;;
23730;SDS011;12046;44.702;10.622;2023-07-29T02:00:50;3.45;;;3.15;;
23730;SDS011;12046;44.702;10.622;2023-07-29T02:03:16;3.60;;;3.30;;
23730;SDS011;12046;44.702;10.622;2023-07-29T02:05:42;3.50;;;3.20;;
23730;SDS011;12046;44.702;10.622;2023-07-29T02:08:09;3.25;;;3.05;;
23730;SDS011;12046;44.702;10.622;2023-07-29T02:10:35;2.90;;;2.70;;
23730;SDS011;12046;44.702;10.622;2023-07-29T02:13:01;3.25;;;2.90;;
23730;SDS011;12046;44.702;10.622;2023-07-29T02:15:27;3.53;;;3.22;;
23730;SDS011;12046;44.702;10.622;2023-07-29T02:17:53;3.85;;;3.55;;
23730;SDS011;12046;44.702;10.622;2023-07-29T02:20:19;4.75;;;4.22;;
23730;SDS011;12046;44.702;10.622;2023-07-29T02:22:45;5.05;;;4.03;;
23730;SDS011;12046;44.702;10.622;2023-07-29T02:25:11;3.80;;;3.50;;
23730;SDS011;12046;44.702;10.622;2023-07-29T02:27:36;3.50;;;3.20;;
23730;SDS011;12046;44.702;10.622;2023-07-29T02:30:02;3.90;;;3.50;;
23730;SDS011;12046;44.702;10.622;2023-07-29T02:32:28;3.13;;;2.80;;
23730;SDS011;12046;44.702;10.622;2023-07-29T02:34:54;3.08;;;2.70;;
23730;SDS011;12046;44.702;10.622;2023-07-29T02:37:20;2.70;;;2.50;;
23730;SDS011;12046;44.702;10.622;2023-07-29T02:39:46;2.97;;;2.60;;
23730;SDS011;12046;44.702;10.622;2023-07-29T02:42:11;2.80;;;2.60;;
23730;SDS011;12046;44.702;10.622;2023-07-29T02:44:37;2.90;;;2.38;;
23730;SDS011;12046;44.702;10.622;2023-07-29T02:47:04;2.55;;;2.35;;
23730;SDS011;12046;44.702;10.622;2023-07-29T02:49:29;2.42;;;2.22;;
23730;SDS011;12046;44.702;10.622;2023-07-29T02:51:55;2.47;;;2.25;;
23730;SDS011;12046;44.702;10.622;2023-07-29T02:54:21;2.97;;;2.70;;
23730;SDS011;12046;44.702;10.622;2023-07-29T02:56:47;3.05;;;2.20;;
23730;SDS011;12046;44.702;10.622;2023-07-29T02:59:13;2.65;;;2.17;;
23730;SDS011;12046;44.702;10.622;2023-07-29T03:01:38;2.88;;;2.58;;
23730;SDS011;12046;44.702;10.622;2023-07-29T03:04:04;2.58;;;2.38;;
23730;SDS011;12046;44.702;10.622;2023-07-29T03:06:30;2.83;;;2.60;;
23730;SDS011;12046;44.702;10.622;2023-07-29T03:08:56;2.90;;;2.70;;
23730;SDS011;12046;44.702;10.622;2023-07-29T03:11:21;2.17;;;1.98;;
23730;SDS011;12046;44.702;10.622;2023-07-29T03:13:47;2.63;;;2.42;;
23730;SDS011;12046;44.702;10.622;2023-07-29T03:16:14;2.60;;;2.40;;
23730;SDS011;12046;44.702;10.622;2023-07-29T03:18:42;2.38;;;2.17;;
23730;SDS011;12046;44.702;10.622;2023-07-29T03:21:09;2.22;;;2.13;;
23730;SDS011;12046;44.702;10.622;2023-07-29T03:23:35;2.58;;;2.30;;
23730;SDS011;12046;44.702;10.622;2023-07-29T03:26:02;2.55;;;2.25;;
23730;SDS011;12046;44.702;10.622;2023-07-29T03:28:35;2.80;;;2.30;;
23730;SDS011;12046;44.702;10.622;2023-07-29T03:31:06;2.88;;;2.60;;
23730;SDS011;12046;44.702;10.622;2023-07-29T03:33:32;2.75;;;2.03;;
23730;SDS011;12046;44.702;10.622;2023-07-29T03:35:58;2.72;;;2.53;;
23730;SDS011;12046;44.702;10.622;2023-07-29T03:38:24;2.58;;;2.38;;
23730;SDS011;12046;44.702;10.622;2023-07-29T03:40:50;2.92;;;2.72;;
23730;SDS011;12046;44.702;10.622;2023-07-29T03:43:16;2.50;;;2.30;;
23730;SDS011;12046;44.702;10.622;2023-07-29T03:45:41;3.92;;;2.45;;
23730;SDS011;12046;44.702;10.622;2023-07-29T03:48:07;3.05;;;2.75;;
23730;SDS011;12046;44.702;10.622;2023-07-29T03:50:34;2.90;;;2.60;;
23730;SDS011;12046;44.702;10.622;2023-07-29T03:53:01;2.60;;;2.40;;
23730;SDS011;12046;44.702;10.622;2023-07-29T03:55:27;2.42;;;2.33;;
23730;SDS011;12046;44.702;10.622;2023-07-29T03:57:55;2.63;;;2.42;;
23730;SDS011;12046;44.702;10.622;2023-07-29T04:00:22;2.47;;;2.30;;
23730;SDS011;12046;44.702;10.622;2023-07-29T04:02:47;2.90;;;2.22;;
23730;SDS011;12046;44.702;10.622;2023-07-29T04:05:14;2.60;;;2.40;;
23730;SDS011;12046;44.702;10.622;2023-07-29T04:07:39;3.20;;;2.63;;
23730;SDS011;12046;44.702;10.622;2023-07-29T04:10:05;3.22;;;2.58;;
23730;SDS011;12046;44.702;10.622;2023-07-29T04:12:32;2.92;;;2.63;;
23730;SDS011;12046;44.702;10.622;2023-07-29T04:14:58;2.60;;;2.40;;
23730;SDS011;12046;44.702;10.622;2023-07-29T04:17:23;2.97;;;2.78;;
23730;SDS011;12046;44.702;10.622;2023-07-29T04:19:49;2.92;;;2.60;;
23730;SDS011;12046;44.702;10.622;2023-07-29T04:22:15;3.13;;;2.55;;
23730;SDS011;12046;44.702;10.622;2023-07-29T04:24:41;2.60;;;2.38;;
23730;SDS011;12046;44.702;10.622;2023-07-29T04:27:07;3.60;;;2.58;;
23730;SDS011;12046;44.702;10.622;2023-07-29T04:29:32;3.92;;;3.10;;
23730;SDS011;12046;44.702;10.622;2023-07-29T04:32:01;3.17;;;2.83;;
23730;SDS011;12046;44.702;10.622;2023-07-29T04:34:29;2.83;;;2.60;;
23730;SDS011;12046;44.702;10.622;2023-07-29T04:36:55;5.72;;;2.88;;
23730;SDS011;12046;44.702;10.622;2023-07-29T04:39:21;3.13;;;2.88;;
23730;SDS011;12046;44.702;10.622;2023-07-29T04:41:47;2.78;;;2.50;;
23730;SDS011;12046;44.702;10.622;2023-07-29T04:44:12;3.60;;;2.63;;
23730;SDS011;12046;44.702;10.622;2023-07-29T04:46:38;2.50;;;2.30;;
23730;SDS011;12046;44.702;10.622;2023-07-29T04:49:04;3.35;;;2.50;;
23730;SDS011;12046;44.702;10.622;2023-07-29T04:51:30;4.32;;;3.08;;
23730;SDS011;12046;44.702;10.622;2023-07-29T04:53:59;2.80;;;2.53;;
23730;SDS011;12046;44.702;10.622;2023-07-29T04:56:25;3.15;;;2.88;;
23730;SDS011;12046;44.702;10.622;2023-07-29T04:58:51;3.30;;;3.00;;
23730;SDS011;12046;44.702;10.622;2023-07-29T05:01:17;3.70;;;3.20;;
23730;SDS011;12046;44.702;10.622;2023-07-29T05:03:43;2.78;;;2.58;;
23730;SDS011;12046;44.702;10.622;2023-07-29T05:06:09;3.25;;;2.95;;
23730;SDS011;12046;44.702;10.622;2023-07-29T05:08:34;3.50;;;2.90;;
23730;SDS011;12046;44.702;10.622;2023-07-29T05:11:00;3.35;;;3.05;;
23730;SDS011;12046;44.702;10.622;2023-07-29T05:13:26;2.90;;;2.70;;
23730;SDS011;12046;44.702;10.622;2023-07-29T05:15:52;2.40;;;2.20;;
23730;SDS011;12046;44.702;10.622;2023-07-29T05:18:18;3.53;;;2.50;;
23730;SDS011;12046;44.702;10.622;2023-07-29T05:20:43;3.55;;;2.70;;
23730;SDS011;12046;44.702;10.622;2023-07-29T05:23:09;3.80;;;3.03;;
23730;SDS011;12046;44.702;10.622;2023-07-29T05:25:35;4.47;;;3.03;;
23730;SDS011;12046;44.702;10.622;2023-07-29T05:28:01;3.05;;;2.70;;
23730;SDS011;12046;44.702;10.622;2023-07-29T05:30:28;3.00;;;2.80;;
23730;SDS011;12046;44.702;10.622;2023-07-29T05:32:56;2.67;;;2.47;;
23730;SDS011;12046;44.702;10.622;2023-07-29T05:35:23;2.63;;;2.42;;
23730;SDS011;12046;44.702;10.622;2023-07-29T05:37:49;2.67;;;2.47;;
23730;SDS011;12046;44.702;10.622;2023-07-29T05:40:15;4.32;;;2.63;;
23730;SDS011;12046;44.702;10.622;2023-07-29T05:42:40;3.75;;;2.85;;
23730;SDS011;12046;44.702;10.622;2023-07-29T05:45:06;2.70;;;2.50;;
23730;SDS011;12046;44.702;10.622;2023-07-29T05:47:33;5.75;;;2.95;;
23730;SDS011;12046;44.702;10.622;2023-07-29T05:49:58;3.47;;;2.97;;
23730;SDS011;12046;44.702;10.622;2023-07-29T05:52:27;3.33;;;2.75;;
23730;SDS011;12046;44.702;10.622;2023-07-29T05:54:52;3.00;;;2.70;;
23730;SDS011;12046;44.702;10.622;2023-07-29T05:57:18;2.50;;;2.30;;
23730;SDS011;12046;44.702;10.622;2023-07-29T05:59:44;2.70;;;2.45;;
23730;SDS011;12046;44.702;10.622;2023-07-29T06:02:10;2.55;;;2.33;;
23730;SDS011;12046;44.702;10.622;2023-07-29T06:04:36;4.05;;;2.72;;
23730;SDS011;12046;44.702;10.622;2023-07-29T06:07:02;3.85;;;2.80;;
23730;SDS011;12046;44.702;10.622;2023-07-29T06:09:28;3.85;;;2.92;;
23730;SDS011;12046;44.702;10.622;2023-07-29T06:11:53;3.20;;;2.50;;
23730;SDS011;12046;44.702;10.622;2023-07-29T06:14:19;2.50;;;2.25;;
23730;SDS011;12046;44.702;10.622;2023-07-29T06:16:45;3.90;;;2.67;;
23730;SDS011;12046;44.702;10.622;2023-07-29T06:19:18;3.00;;;2.20;;
23730;SDS011;12046;44.702;10.622;2023-07-29T06:21:45;3.95;;;3.00;;
23730;SDS011;12046;44.702;10.622;2023-07-29T06:24:10;3.53;;;2.70;;
23730;SDS011;12046;44.702;10.622;2023-07-29T06:26:36;3.05;;;2.45;;
23730;SDS011;12046;44.702;10.622;2023-07-29T06:29:02;2.67;;;2.47;;
23730;SDS011;12046;44.702;10.622;2023-07-29T06:31:28;5.50;;;2.35;;
23730;SDS011;12046;44.702;10.622;2023-07-29T06:33:54;3.15;;;2.80;;
23730;SDS011;12046;44.702;10.622;2023-07-29T06:36:20;2.70;;;2.50;;
23730;SDS011;12046;44.702;10.622;2023-07-29T06:38:46;5.10;;;2.40;;
23730;SDS011;12046;44.702;10.622;2023-07-29T06:41:11;3.75;;;2.88;;
23730;SDS011;12046;44.702;10.622;2023-07-29T06:43:37;3.33;;;2.17;;
23730;SDS011;12046;44.702;10.622;2023-07-29T06:46:03;3.45;;;2.40;;
23730;SDS011;12046;44.702;10.622;2023-07-29T06:48:29;3.08;;;2.40;;
23730;SDS011;12046;44.702;10.622;2023-07-29T06:50:55;2.53;;;2.33;;
23730;SDS011;12046;44.702;10.622;2023-07-29T06:53:25;2.67;;;2.33;;
23730;SDS011;12046;44.702;10.622;2023-07-29T06:55:54;3.25;;;1.98;;
23730;SDS011;12046;44.702;10.622;2023-07-29T06:58:20;3.45;;;2.38;;
23730;SDS011;12046;44.702;10.622;2023-07-29T07:00:46;3.45;;;2.20;;
23730;SDS011;12046;44.702;10.622;2023-07-29T07:03:12;2.95;;;2.63;;
23730;SDS011;12046;44.702;10.622;2023-07-29T07:05:38;4.40;;;2.42;;
23730;SDS011;12046;44.702;10.622;2023-07-29T07:08:03;2.58;;;2.38;;
23730;SDS011;12046;44.702;10.622;2023-07-29T07:10:29;2.95;;;2.40;;
23730;SDS011;12046;44.702;10.622;2023-07-29T07:12:55;5.28;;;2.50;;
23730;SDS011;12046;44.702;10.622;2023-07-29T07:15:21;3.90;;;2.35;;
23730;SDS011;12046;44.702;10.622;2023-07-29T07:17:47;2.60;;;2.40;;
23730;SDS011;12046;44.702;10.622;2023-07-29T07:20:13;2.58;;;2.38;;
23730;SDS011;12046;44.702;10.622;2023-07-29T07:22:38;1.95;;;1.85;;
23730;SDS011;12046;44.702;10.622;2023-07-29T07:25:04;2.53;;;1.92;;
23730;SDS011;12046;44.702;10.622;2023-07-29T07:27:30;1.95;;;1.85;;
23730;SDS011;12046;44.702;10.622;2023-07-29T07:29:56;2.35;;;2.10;;
23730;SDS011;12046;44.702;10.622;2023-07-29T07:32:22;2.50;;;2.30;;
23730;SDS011;12046;44.702;10.622;2023-07-29T07:34:47;2.35;;;2.03;;
23730;SDS011;12046;44.702;10.622;2023-07-29T07:37:13;2.30;;;2.10;;
23730;SDS011;12046;44.702;10.622;2023-07-29T07:39:39;2.83;;;2.15;;
23730;SDS011;12046;44.702;10.622;2023-07-29T07:42:05;3.25;;;2.35;;
23730;SDS011;12046;44.702;10.622;2023-07-29T07:44:31;3.40;;;2.47;;
23730;SDS011;12046;44.702;10.622;2023-07-29T07:46:57;3.13;;;2.03;;
23730;SDS011;12046;44.702;10.622;2023-07-29T07:49:23;3.35;;;2.10;;
23730;SDS011;12046;44.702;10.622;2023-07-29T07:51:49;2.90;;;2.17;;
23730;SDS011;12046;44.702;10.622;2023-07-29T07:54:14;2.03;;;1.90;;
23730;SDS011;12046;44.702;10.622;2023-07-29T07:56:40;2.92;;;2.15;;
23730;SDS011;12046;44.702;10.622;2023-07-29T07:59:06;3.83;;;2.35;;
23730;SDS011;12046;44.702;10.622;2023-07-29T08:01:35;3.22;;;2.38;;
23730;SDS011;12046;44.702;10.622;2023-07-29T08:04:02;4.07;;;2.58;;
23730;SDS011;12046;44.702;10.622;2023-07-29T08:06:28;2.92;;;2.35;;
23730;SDS011;12046;44.702;10.622;2023-07-29T08:08:55;2.42;;;2.22;;
23730;SDS011;12046;44.702;10.622;2023-07-29T08:11:25;2.35;;;2.15;;
23730;SDS011;12046;44.702;10.622;2023-07-29T08:13:51;2.83;;;2.30;;
23730;SDS011;12046;44.702;10.622;2023-07-29T08:16:17;3.45;;;2.35;;
23730;SDS011;12046;44.702;10.622;2023-07-29T08:18:42;3.50;;;2.80;;
23730;SDS011;12046;44.702;10.622;2023-07-29T08:21:09;4.18;;;2.92;;
23730;SDS011;12046;44.702;10.622;2023-07-29T08:23:35;2.63;;;2.42;;
23730;SDS011;12046;44.702;10.622;2023-07-29T08:26:02;2.40;;;2.00;;
23730;SDS011;12046;44.702;10.622;2023-07-29T08:28:36;2.47;;;2.28;;
23730;SDS011;12046;44.702;10.622;2023-07-29T08:31:03;2.10;;;1.90;;
23730;SDS011;12046;44.702;10.622;2023-07-29T08:33:29;4.07;;;2.45;;
23730;SDS011;12046;44.702;10.622;2023-07-29T08:35:55;2.47;;;1.90;;
23730;SDS011;12046;44.702;10.622;2023-07-29T08:38:23;3.03;;;2.20;;
23730;SDS011;12046;44.702;10.622;2023-07-29T08:40:50;3.08;;;2.20;;
23730;SDS011;12046;44.702;10.622;2023-07-29T08:43:24;2.30;;;2.10;;
23730;SDS011;12046;44.702;10.622;2023-07-29T08:45:58;2.60;;;2.40;;
23730;SDS011;12046;44.702;10.622;2023-07-29T08:48:43;2.80;;;2.28;;
23730;SDS011;12046;44.702;10.622;2023-07-29T08:51:09;3.58;;;2.60;;
23730;SDS011;12046;44.702;10.622;2023-07-29T08:53:39;3.17;;;2.10;;
23730;SDS011;12046;44.702;10.622;2023-07-29T08:56:06;2.97;;;2.10;;
23730;SDS011;12046;44.702;10.622;2023-07-29T08:58:32;2.50;;;2.30;;
23730;SDS011;12046;44.702;10.622;2023-07-29T09:00:59;2.40;;;2.20;;
23730;SDS011;12046;44.702;10.622;2023-07-29T09:03:25;2.80;;;2.22;;
23730;SDS011;12046;44.702;10.622;2023-07-29T09:05:51;2.47;;;2.25;;
23730;SDS011;12046;44.702;10.622;2023-07-29T09:08:19;3.00;;;2.20;;
23730;SDS011;12046;44.702;10.622;2023-07-29T09:10:46;2.97;;;2.33;;
23730;SDS011;12046;44.702;10.622;2023-07-29T09:13:12;3.67;;;2.40;;
23730;SDS011;12046;44.702;10.622;2023-07-29T09:15:38;3.42;;;2.40;;
23730;SDS011;12046;44.702;10.622;2023-07-29T09:18:08;3.60;;;2.70;;
23730;SDS011;12046;44.702;10.622;2023-07-29T09:20:35;3.35;;;2.35;;
23730;SDS011;12046;44.702;10.622;2023-07-29T09:23:01;2.95;;;2.50;;
23730;SDS011;12046;44.702;10.622;2023-07-29T09:25:36;2.10;;;1.90;;
23730;SDS011;12046;44.702;10.622;2023-07-29T09:28:12;3.03;;;2.40;;
23730;SDS011;12046;44.702;10.622;2023-07-29T09:30:39;2.35;;;2.15;;
23730;SDS011;12046;44.702;10.622;2023-07-29T09:33:07;3.47;;;2.70;;
23730;SDS011;12046;44.702;10.622;2023-07-29T09:35:34;3.33;;;2.10;;
23730;SDS011;12046;44.702;10.622;2023-07-29T09:38:02;3.33;;;2.47;;
23730;SDS011;12046;44.702;10.622;2023-07-29T09:40:36;2.80;;;2.60;;
23730;SDS011;12046;44.702;10.622;2023-07-29T09:43:04;2.55;;;2.35;;
23730;SDS011;12046;44.702;10.622;2023-07-29T09:45:32;2.55;;;2.30;;
23730;SDS011;12046;44.702;10.622;2023-07-29T09:47:59;2.50;;;2.30;;
23730;SDS011;12046;44.702;10.622;2023-07-29T09:50:25;3.78;;;2.60;;
23730;SDS011;12046;44.702;10.622;2023-07-29T09:52:52;3.83;;;2.67;;
23730;SDS011;12046;44.702;10.622;2023-07-29T09:55:20;2.70;;;2.40;;
23730;SDS011;12046;44.702;10.622;2023-07-29T09:57:49;3.28;;;2.20;;
23730;SDS011;12046;44.702;10.622;2023-07-29T10:00:30;3.28;;;2.50;;
23730;SDS011;12046;44.702;10.622;2023-07-29T10:02:57;4.75;;;2.45;;
23730;SDS011;12046;44.702;10.622;2023-07-29T10:05:25;2.40;;;2.20;;
23730;SDS011;12046;44.702;10.622;2023-07-29T10:07:52;2.33;;;2.13;;
23730;SDS011;12046;44.702;10.622;2023-07-29T10:10:19;2.97;;;2.35;;
23730;SDS011;12046;44.702;10.622;2023-07-29T10:12:46;4.97;;;2.30;;
23730;SDS011;12046;44.702;10.622;2023-07-29T10:15:12;2.50;;;2.30;;
23730;SDS011;12046;44.702;10.622;2023-07-29T10:17:39;2.60;;;2.22;;
23730;SDS011;12046;44.702;10.622;2023-07-29T10:20:09;2.33;;;2.13;;
23730;SDS011;12046;44.702;10.622;2023-07-29T10:22:39;3.63;;;1.92;;
23730;SDS011;12046;44.702;10.622;2023-07-29T10:25:18;2.97;;;2.50;;
23730;SDS011;12046;44.702;10.622;2023-07-29T10:27:48;2.15;;;2.00;;
23730;SDS011;12046;44.702;10.622;2023-07-29T10:30:29;3.25;;;2.45;;
23730;SDS011;12046;44.702;10.622;2023-07-29T10:35:48;3.00;;;2.70;;
23730;SDS011;12046;44.702;10.622;2023-07-29T10:38:15;2.83;;;2.45;;
23730;SDS011;12046;44.702;10.622;2023-07-29T10:40:54;3.45;;;2.60;;
23730;SDS011;12046;44.702;10.622;2023-07-29T10:43:26;2.78;;;2.40;;
23730;SDS011;12046;44.702;10.622;2023-07-29T10:51:34;2.90;;;2.40;;
23730;SDS011;12046;44.702;10.622;2023-07-29T10:54:16;2.40;;;2.20;;
23730;SDS011;12046;44.702;10.622;2023-07-29T10:57:01;2.58;;;2.30;;
23730;SDS011;12046;44.702;10.622;2023-07-29T10:59:33;3.03;;;2.28;;
23730;SDS011;12046;44.702;10.622;2023-07-29T11:02:02;2.45;;;2.20;;
23730;SDS011;12046;44.702;10.622;2023-07-29T11:04:46;2.38;;;2.22;;
23730;SDS011;12046;44.702;10.622;2023-07-29T11:17:37;2.70;;;2.35;;
23730;SDS011;12046;44.702;10.622;2023-07-29T11:20:05;3.25;;;2.30;;
23730;SDS011;12046;44.702;10.622;2023-07-29T11:22:32;2.60;;;2.30;;
23730;SDS011;12046;44.702;10.622;2023-07-29T11:24:58;2.95;;;2.50;;
23730;SDS011;12046;44.702;10.622;2023-07-29T11:27:24;3.38;;;2.58;;
23730;SDS011;12046;44.702;10.622;2023-07-29T11:29:49;3.13;;;2.25;;
23730;SDS011;12046;44.702;10.622;2023-07-29T11:32:15;2.80;;;2.50;;
23730;SDS011;12046;44.702;10.622;2023-07-29T11:34:42;2.45;;;2.22;;
23730;SDS011;12046;44.702;10.622;2023-07-29T11:37:09;2.42;;;2.20;;
23730;SDS011;12046;44.702;10.622;2023-07-29T11:39:40;2.30;;;2.10;;
23730;SDS011;12046;44.702;10.622;2023-07-29T11:42:06;2.40;;;2.20;;
23730;SDS011;12046;44.702;10.622;2023-07-29T11:44:36;3.58;;;2.33;;
23730;SDS011;12046;44.702;10.622;2023-07-29T11:47:02;2.85;;;2.33;;
23730;SDS011;12046;44.702;10.622;2023-07-29T11:49:30;2.45;;;2.25;;
23730;SDS011;12046;44.702;10.622;2023-07-29T11:51:58;2.45;;;2.25;;
23730;SDS011;12046;44.702;10.622;2023-07-29T11:54:24;2.97;;;2.08;;
23730;SDS011;12046;44.702;10.622;2023-07-29T11:56:50;3.38;;;2.42;;
23730;SDS011;12046;44.702;10.622;2023-07-29T11:59:16;2.63;;;2.42;;
23730;SDS011;12046;44.702;10.622;2023-07-29T12:01:42;2.65;;;2.35;;
23730;SDS011;12046;44.702;10.622;2023-07-29T12:04:08;3.97;;;2.60;;
23730;SDS011;12046;44.702;10.622;2023-07-29T12:06:34;2.50;;;2.30;;
23730;SDS011;12046;44.702;10.622;2023-07-29T12:09:02;2.60;;;2.40;;
23730;SDS011;12046;44.702;10.622;2023-07-29T12:11:27;2.63;;;2.40;;
23730;SDS011;12046;44.702;10.622;2023-07-29T12:13:53;2.67;;;2.00;;
23730;SDS011;12046;44.702;10.622;2023-07-29T12:16:19;2.35;;;2.15;;
23730;SDS011;12046;44.702;10.622;2023-07-29T12:18:45;2.38;;;2.17;;
23730;SDS011;12046;44.702;10.622;2023-07-29T12:21:14;2.58;;;2.38;;
23730;SDS011;12046;44.702;10.622;2023-07-29T12:23:40;2.53;;;2.33;;
23730;SDS011;12046;44.702;10.622;2023-07-29T12:26:05;2.50;;;2.30;;
23730;SDS011;12046;44.702;10.622;2023-07-29T12:28:31;2.40;;;2.10;;
23730;SDS011;12046;44.702;10.622;2023-07-29T12:30:57;2.83;;;2.35;;
23730;SDS011;12046;44.702;10.622;2023-07-29T12:33:56;2.85;;;2.55;;
23730;SDS011;12046;44.702;10.622;2023-07-29T12:36:20;2.83;;;2.55;;
23730;SDS011;12046;44.702;10.622;2023-07-29T12:38:46;2.67;;;2.30;;
23730;SDS011;12046;44.702;10.622;2023-07-29T12:41:12;2.70;;;2.50;;
23730;SDS011;12046;44.702;10.622;2023-07-29T12:43:38;3.38;;;2.88;;
23730;SDS011;12046;44.702;10.622;2023-07-29T12:46:05;3.40;;;2.35;;
23730;SDS011;12046;44.702;10.622;2023-07-29T12:48:31;2.72;;;2.45;;
23730;SDS011;12046;44.702;10.622;2023-07-29T12:50:56;2.92;;;2.63;;
23730;SDS011;12046;44.702;10.622;2023-07-29T12:53:22;2.88;;;2.67;;
23730;SDS011;12046;44.702;10.622;2023-07-29T12:55:48;3.03;;;2.80;;
23730;SDS011;12046;44.702;10.622;2023-07-29T12:58:13;3.78;;;2.80;;
23730;SDS011;12046;44.702;10.622;2023-07-29T13:00:39;2.97;;;2.40;;
23730;SDS011;12046;44.702;10.622;2023-07-29T13:03:05;3.28;;;2.53;;
23730;SDS011;12046;44.702;10.622;2023-07-29T13:05:30;2.80;;;2.60;;
23730;SDS011;12046;44.702;10.622;2023-07-29T13:07:56;2.78;;;2.58;;
23730;SDS011;12046;44.702;10.622;2023-07-29T13:10:22;3.25;;;2.35;;
23730;SDS011;12046;44.702;10.622;2023-07-29T13:12:47;2.60;;;2.40;;
23730;SDS011;12046;44.702;10.622;2023-07-29T13:15:14;2.50;;;2.30;;
23730;SDS011;12046;44.702;10.622;2023-07-29T13:17:39;3.13;;;2.45;;
23730;SDS011;12046;44.702;10.622;2023-07-29T13:20:06;3.22;;;2.45;;
23730;SDS011;12046;44.702;10.622;2023-07-29T13:22:32;3.38;;;2.80;;
23730;SDS011;12046;44.702;10.622;2023-07-29T13:24:58;3.13;;;2.80;;
23730;SDS011;12046;44.702;10.622;2023-07-29T13:27:24;2.53;;;2.33;;
23730;SDS011;12046;44.702;10.622;2023-07-29T13:29:50;2.60;;;2.40;;
23730;SDS011;12046;44.702;10.622;2023-07-29T13:32:16;2.60;;;2.40;;
23730;SDS011;12046;44.702;10.622;2023-07-29T13:34:41;2.95;;;2.40;;
23730;SDS011;12046;44.702;10.622;2023-07-29T13:37:07;3.00;;;2.67;;
23730;SDS011;12046;44.702;10.622;2023-07-29T13:39:33;3.40;;;2.70;;
23730;SDS011;12046;44.702;10.622;2023-07-29T13:41:59;2.55;;;2.35;;
23730;SDS011;12046;44.702;10.622;2023-07-29T13:44:24;3.35;;;2.55;;
23730;SDS011;12046;44.702;10.622;2023-07-29T13:46:50;4.70;;;3.10;;
23730;SDS011;12046;44.702;10.622;2023-07-29T13:49:16;4.10;;;2.80;;
23730;SDS011;12046;44.702;10.622;2023-07-29T13:51:42;2.70;;;2.50;;
23730;SDS011;12046;44.702;10.622;2023-07-29T13:54:08;2.90;;;2.60;;
23730;SDS011;12046;44.702;10.622;2023-07-29T13:56:33;3.47;;;2.70;;
23730;SDS011;12046;44.702;10.622;2023-07-29T13:58:59;2.63;;;2.42;;
23730;SDS011;12046;44.702;10.622;2023-07-29T14:01:25;4.18;;;2.85;;
23730;SDS011;12046;44.702;10.622;2023-07-29T14:03:50;3.97;;;3.00;;
23730;SDS011;12046;44.702;10.622;2023-07-29T14:06:16;3.30;;;3.00;;
23730;SDS011;12046;44.702;10.622;2023-07-29T14:08:42;3.47;;;2.45;;
23730;SDS011;12046;44.702;10.622;2023-07-29T14:11:08;3.45;;;2.88;;
23730;SDS011;12046;44.702;10.622;2023-07-29T14:13:34;3.15;;;2.72;;
23730;SDS011;12046;44.702;10.622;2023-07-29T14:16:02;3.17;;;2.53;;
23730;SDS011;12046;44.702;10.622;2023-07-29T14:18:29;3.60;;;2.53;;
23730;SDS011;12046;44.702;10.622;2023-07-29T14:20:55;2.60;;;2.40;;
23730;SDS011;12046;44.702;10.622;2023-07-29T14:23:21;4.30;;;3.08;;
23730;SDS011;12046;44.702;10.622;2023-07-29T14:25:47;2.88;;;2.60;;
23730;SDS011;12046;44.702;10.622;2023-07-29T14:28:13;2.72;;;2.53;;
23730;SDS011;12046;44.702;10.622;2023-07-29T14:30:39;2.92;;;2.72;;
23730;SDS011;12046;44.702;10.622;2023-07-29T14:33:06;2.53;;;2.33;;
23730;SDS011;12046;44.702;10.622;2023-07-29T14:35:32;2.80;;;2.50;;
23730;SDS011;12046;44.702;10.622;2023-07-29T14:37:58;2.75;;;2.55;;
23730;SDS011;12046;44.702;10.622;2023-07-29T14:40:24;3.05;;;2.72;;
23730;SDS011;12046;44.702;10.622;2023-07-29T14:42:51;3.00;;;2.80;;
23730;SDS011;12046;44.702;10.622;2023-07-29T14:45:16;3.00;;;2.80;;
23730;SDS011;12046;44.702;10.622;2023-07-29T14:47:42;3.25;;;2.90;;
23730;SDS011;12046;44.702;10.622;2023-07-29T14:50:08;2.80;;;2.42;;
23730;SDS011;12046;44.702;10.622;2023-07-29T14:52:34;2.88;;;2.58;;
23730;SDS011;12046;44.702;10.622;2023-07-29T14:55:00;3.60;;;2.60;;
23730;SDS011;12046;44.702;10.622;2023-07-29T14:57:25;3.55;;;2.58;;
23730;SDS011;12046;44.702;10.622;2023-07-29T14:59:51;2.67;;;2.40;;
23730;SDS011;12046;44.702;10.622;2023-07-29T15:02:17;2.47;;;2.28;;